Time;durP1;ratioP1;P1;durP2;ratioP2;P2;SDS_P1;SDS_P2;PMS_P1;PMS_P2;Temp;Humidity;BMP_temperature;BMP_pressure;BME280_temperature;BME280_humidity;BME280_pressure;Samples;Min_cycle;Max_cycle;Signal;HPM_P1;HPM_P2
2022/10/07 00:00:45;;;;;;;0.50;0.50;;;18.90;60.20;;;;;;5063292;28;20084;-64
2022/10/07 00:03:11;;;;;;;0.65;0.65;;;18.90;60.20;;;;;;5062987;28;20190;-65
2022/10/07 00:05:37;;;;;;;0.45;0.45;;;18.90;60.20;;;;;;5062966;28;20024;-64
2022/10/07 00:08:03;;;;;;;0.60;0.60;;;18.90;60.20;;;;;;5062988;28;20114;-64
2022/10/07 00:10:28;;;;;;;0.50;0.50;;;18.90;60.20;;;;;;5066063;28;20344;-64
2022/10/07 00:12:54;;;;;;;0.68;0.68;;;18.90;60.20;;;;;;5066748;28;20017;-64
2022/10/07 00:15:22;;;;;;;0.80;0.80;;;19.00;60.30;;;;;;5066680;28;20328;-65
2022/10/07 00:17:48;;;;;;;0.60;0.60;;;18.90;60.20;;;;;;5066704;28;20080;-65
2022/10/07 00:20:14;;;;;;;0.60;0.60;;;18.90;60.20;;;;;;5066612;28;20030;-66
2022/10/07 00:22:39;;;;;;;0.80;0.70;;;18.90;60.20;;;;;;5066567;28;20025;-65
2022/10/07 00:25:05;;;;;;;0.52;0.52;;;18.90;60.20;;;;;;5066488;28;20025;-64
2022/10/07 00:27:31;;;;;;;0.70;0.70;;;18.90;60.20;;;;;;5065288;28;20209;-65
2022/10/07 00:29:56;;;;;;;0.80;0.80;;;18.90;60.20;;;;;;5066314;28;20044;-65
2022/10/07 00:32:22;;;;;;;0.73;0.60;;;18.90;60.20;;;;;;5066376;28;20085;-65
2022/10/07 00:34:48;;;;;;;0.50;0.50;;;18.90;60.20;;;;;;5066338;28;20036;-65
2022/10/07 00:37:14;;;;;;;0.65;0.60;;;18.90;60.20;;;;;;5066279;28;20041;-64
2022/10/07 00:39:39;;;;;;;0.50;0.50;;;18.90;60.30;;;;;;5066235;28;20084;-64
2022/10/07 00:42:05;;;;;;;0.60;0.60;;;18.90;60.30;;;;;;5066187;28;20063;-64
2022/10/07 00:44:31;;;;;;;0.40;0.40;;;18.90;60.20;;;;;;5066144;28;20313;-64
2022/10/07 00:47:07;;;;;;;0.50;0.50;;;18.90;60.30;;;;;;5066097;28;20032;-66
2022/10/07 00:49:39;;;;;;;0.88;0.60;;;18.90;60.30;;;;;;5066028;28;20017;-62
2022/10/07 00:52:05;;;;;;;0.55;0.55;;;18.90;60.30;;;;;;5066057;28;20316;-64
2022/10/07 00:54:31;;;;;;;0.80;0.80;;;18.90;60.20;;;;;;5065961;28;20017;-64
2022/10/07 00:56:58;;;;;;;1.13;0.70;;;18.90;60.20;;;;;;5065907;28;20054;-63
2022/10/07 00:59:24;;;;;;;0.47;0.47;;;18.90;60.20;;;;;;5065831;28;20272;-63
2022/10/07 01:01:50;;;;;;;0.50;0.40;;;18.90;60.20;;;;;;5064662;28;20017;-64
2022/10/07 01:04:16;;;;;;;0.50;0.50;;;18.90;60.30;;;;;;5065758;28;20032;-63
2022/10/07 01:06:44;;;;;;;0.57;0.57;;;18.80;60.20;;;;;;5065726;28;20025;-63
2022/10/07 01:09:12;;;;;;;0.93;0.50;;;18.90;60.30;;;;;;5065717;28;20025;-64
2022/10/07 01:12:17;;;;;;;0.60;0.60;;;18.90;60.30;;;;;;5065426;28;20033;-65
2022/10/07 01:14:58;;;;;;;0.60;0.60;;;18.90;60.30;;;;;;5065622;28;20013;-64
2022/10/07 01:17:48;;;;;;;0.60;0.60;;;18.90;60.30;;;;;;5065565;28;20020;-63
2022/10/07 01:20:38;;;;;;;0.82;0.80;;;18.80;60.30;;;;;;5065074;28;20023;-64
2022/10/07 01:23:08;;;;;;;0.70;0.70;;;18.80;60.30;;;;;;5065512;28;20021;-64
2022/10/07 01:25:45;;;;;;;1.00;0.80;;;18.90;60.30;;;;;;5065465;28;20024;-65
2022/10/07 01:28:20;;;;;;;0.70;0.70;;;18.80;60.30;;;;;;5065366;28;20324;-64
2022/10/07 01:30:52;;;;;;;0.50;0.50;;;18.90;60.30;;;;;;5065513;28;20150;-64
2022/10/07 01:33:21;;;;;;;0.50;0.50;;;18.80;60.30;;;;;;5065550;28;20017;-64
2022/10/07 01:35:49;;;;;;;0.68;0.68;;;18.80;60.30;;;;;;5065175;28;20019;-63
2022/10/07 01:38:18;;;;;;;0.70;0.60;;;18.90;60.30;;;;;;5065189;28;20080;-63
2022/10/07 01:41:03;;;;;;;0.40;0.40;;;18.90;60.30;;;;;;5065131;28;20092;-63
2022/10/07 01:43:30;;;;;;;0.65;0.65;;;18.90;60.30;;;;;;5065351;28;20040;-64
2022/10/07 01:45:56;;;;;;;0.65;0.60;;;18.80;60.30;;;;;;5065018;28;20047;-64
2022/10/07 01:48:22;;;;;;;0.55;0.52;;;18.80;60.30;;;;;;5064963;28;20052;-65
2022/10/07 01:50:49;;;;;;;0.50;0.50;;;18.80;60.30;;;;;;5064854;28;20033;-65
2022/10/07 01:54:01;;;;;;;0.60;0.60;;;18.80;60.30;;;;;;5064863;28;20012;-64
2022/10/07 01:56:44;;;;;;;0.55;0.52;;;18.80;60.30;;;;;;5064828;28;20013;-63
2022/10/07 01:59:19;;;;;;;0.40;0.40;;;18.80;60.30;;;;;;5064721;28;20031;-64
2022/10/07 02:01:51;;;;;;;0.65;0.65;;;18.80;60.30;;;;;;5064680;28;20017;-63
2022/10/07 02:04:31;;;;;;;0.80;0.80;;;18.80;60.30;;;;;;5064681;28;20374;-63
2022/10/07 02:07:12;;;;;;;0.55;0.55;;;18.80;60.30;;;;;;5064625;28;20025;-63
2022/10/07 02:09:54;;;;;;;0.90;0.70;;;18.80;60.30;;;;;;5064284;28;20021;-63
2022/10/07 02:12:41;;;;;;;0.90;0.60;;;18.80;60.30;;;;;;5064541;28;20021;-65
2022/10/07 02:15:16;;;;;;;0.90;0.60;;;18.80;60.30;;;;;;5064457;28;20309;-64
2022/10/07 02:17:47;;;;;;;0.50;0.50;;;18.80;60.30;;;;;;5064422;28;20045;-64
2022/10/07 02:20:16;;;;;;;0.80;0.80;;;18.80;60.30;;;;;;5064364;28;20051;-64
2022/10/07 02:22:43;;;;;;;0.55;0.55;;;18.80;60.30;;;;;;5064327;28;20025;-64
2022/10/07 02:25:11;;;;;;;0.88;0.70;;;18.80;60.30;;;;;;5064222;28;20044;-63
2022/10/07 02:27:38;;;;;;;0.60;0.60;;;18.80;60.30;;;;;;5064227;28;20044;-65
2022/10/07 02:30:12;;;;;;;0.85;0.55;;;18.80;60.40;;;;;;5064071;28;20070;-64
2022/10/07 02:32:46;;;;;;;0.77;0.63;;;18.80;60.30;;;;;;5063337;28;20021;-65
2022/10/07 02:35:30;;;;;;;0.50;0.50;;;18.80;60.30;;;;;;5064095;28;20028;-65
2022/10/07 02:37:59;;;;;;;0.50;0.50;;;18.80;60.40;;;;;;5064063;28;20016;-64
2022/10/07 02:40:34;;;;;;;0.57;0.57;;;18.80;60.30;;;;;;5063976;28;20021;-63
2022/10/07 02:43:20;;;;;;;0.40;0.40;;;18.80;60.30;;;;;;5063967;28;20021;-64
2022/10/07 02:45:56;;;;;;;0.57;0.57;;;18.80;60.30;;;;;;5063938;28;20023;-64
2022/10/07 02:48:38;;;;;;;0.80;0.80;;;18.80;60.30;;;;;;5063910;28;20198;-63
2022/10/07 02:51:10;;;;;;;0.45;0.45;;;18.80;60.30;;;;;;5063780;28;20017;-64
2022/10/07 02:53:38;;;;;;;0.65;0.50;;;18.80;60.30;;;;;;5063818;28;20013;-65
2022/10/07 02:56:05;;;;;;;0.70;0.70;;;18.80;60.40;;;;;;5063704;28;20295;-64
2022/10/07 02:58:32;;;;;;;0.65;0.50;;;18.80;60.40;;;;;;5063701;28;20021;-64
2022/10/07 03:01:00;;;;;;;0.60;0.50;;;18.70;60.40;;;;;;5062562;28;20051;-64
2022/10/07 03:03:27;;;;;;;0.85;0.70;;;18.70;60.30;;;;;;5063601;28;20152;-65
2022/10/07 03:05:53;;;;;;;1.17;0.88;;;18.80;60.40;;;;;;5063586;28;20025;-65
2022/10/07 03:08:20;;;;;;;0.65;0.65;;;18.70;60.30;;;;;;5063557;28;20021;-64
2022/10/07 03:10:46;;;;;;;0.52;0.50;;;18.70;60.30;;;;;;5063284;28;20040;-65
2022/10/07 03:13:14;;;;;;;0.63;0.52;;;18.70;60.30;;;;;;5063515;28;20249;-64
2022/10/07 03:15:40;;;;;;;0.60;0.60;;;18.70;60.30;;;;;;5063498;28;20021;-65
2022/10/07 03:18:24;;;;;;;0.80;0.63;;;18.70;60.30;;;;;;5063449;28;20013;-65
2022/10/07 03:20:52;;;;;;;0.30;0.30;;;18.70;60.30;;;;;;5063475;28;20042;-65
2022/10/07 03:23:18;;;;;;;0.38;0.38;;;18.80;60.40;;;;;;5063402;28;20025;-65
2022/10/07 03:25:49;;;;;;;0.60;0.60;;;18.70;60.30;;;;;;5063381;28;20039;-64
2022/10/07 03:28:14;;;;;;;0.50;0.50;;;18.70;60.40;;;;;;5063648;28;20025;-65
2022/10/07 03:30:40;;;;;;;0.82;0.70;;;18.70;60.30;;;;;;5063232;28;20073;-64
2022/10/07 03:33:07;;;;;;;0.43;0.43;;;18.70;60.30;;;;;;5063333;28;20017;-66
2022/10/07 03:35:32;;;;;;;1.00;0.90;;;18.70;60.30;;;;;;5063555;28;20021;-64
2022/10/07 03:37:58;;;;;;;0.60;0.60;;;18.70;60.30;;;;;;5063271;28;20067;-66
2022/10/07 03:40:24;;;;;;;0.73;0.70;;;18.70;60.40;;;;;;5063242;28;20078;-64
2022/10/07 03:42:49;;;;;;;0.70;0.70;;;18.70;60.30;;;;;;5064026;28;20031;-65
2022/10/07 03:45:15;;;;;;;0.50;0.50;;;18.70;60.30;;;;;;5067284;28;20086;-64
2022/10/07 03:47:41;;;;;;;0.60;0.60;;;18.70;60.30;;;;;;5067250;28;20021;-63
2022/10/07 03:50:07;;;;;;;0.60;0.60;;;18.70;60.30;;;;;;5067100;28;20359;-64
2022/10/07 03:52:35;;;;;;;0.40;0.40;;;18.70;60.30;;;;;;5067149;28;20171;-64
2022/10/07 03:55:01;;;;;;;0.63;0.45;;;18.70;60.40;;;;;;5067128;28;20017;-63
2022/10/07 04:00:12;;;;;;;0.70;0.60;;;18.70;60.30;;;;;;5067057;28;20063;-64
2022/10/07 04:02:37;;;;;;;0.57;0.52;;;18.70;60.40;;;;;;5066950;28;20321;-65
2022/10/07 04:05:03;;;;;;;0.35;0.35;;;18.70;60.30;;;;;;5066890;28;20067;-63
2022/10/07 04:07:29;;;;;;;0.60;0.60;;;18.70;60.40;;;;;;5066864;28;20076;-64
2022/10/07 04:09:55;;;;;;;0.60;0.60;;;18.70;61.00;;;;;;5066609;28;20041;-63
2022/10/07 04:12:21;;;;;;;0.75;0.75;;;18.70;60.40;;;;;;5066823;28;20016;-63
2022/10/07 04:14:47;;;;;;;0.82;0.70;;;18.70;60.40;;;;;;5066741;28;20374;-65
2022/10/07 04:17:12;;;;;;;0.50;0.50;;;18.70;60.40;;;;;;5066692;28;20076;-64
2022/10/07 04:19:38;;;;;;;2.15;0.50;;;18.70;60.40;;;;;;5066638;28;20021;-65
2022/10/07 04:22:05;;;;;;;1.23;0.68;;;18.70;60.30;;;;;;5066628;28;20021;-65
2022/10/07 04:24:30;;;;;;;0.60;0.60;;;18.70;60.40;;;;;;5066556;28;20017;-64
2022/10/07 04:26:56;;;;;;;0.70;0.60;;;18.70;60.40;;;;;;5066520;28;20252;-65
2022/10/07 04:29:22;;;;;;;0.60;0.52;;;18.70;60.40;;;;;;5066474;28;20016;-64
2022/10/07 04:31:47;;;;;;;0.80;0.60;;;18.70;60.30;;;;;;5066327;28;20025;-64
2022/10/07 04:34:13;;;;;;;0.88;0.88;;;18.70;60.40;;;;;;5066327;28;20016;-65
2022/10/07 04:36:39;;;;;;;0.50;0.50;;;18.70;60.40;;;;;;5066327;28;20265;-63
2022/10/07 04:39:04;;;;;;;0.80;0.80;;;18.70;60.30;;;;;;5066277;28;20013;-64
2022/10/07 04:41:30;;;;;;;0.60;0.60;;;18.70;60.40;;;;;;5066203;28;20025;-65
2022/10/07 04:43:56;;;;;;;0.70;0.68;;;18.70;60.30;;;;;;5066225;28;20028;-65
2022/10/07 04:46:22;;;;;;;0.60;0.60;;;18.70;60.30;;;;;;5066156;28;20025;-65
2022/10/07 04:48:47;;;;;;;0.82;0.68;;;18.70;60.40;;;;;;5066087;28;20047;-65
2022/10/07 04:51:14;;;;;;;0.70;0.70;;;18.70;60.40;;;;;;5066003;28;20021;-65
2022/10/07 04:53:40;;;;;;;0.60;0.60;;;18.70;60.40;;;;;;5066033;28;20013;-65
2022/10/07 04:56:07;;;;;;;0.82;0.70;;;18.70;60.40;;;;;;5065167;28;20179;-64
2022/10/07 04:58:32;;;;;;;0.57;0.57;;;18.70;60.30;;;;;;5065926;28;20317;-65
2022/10/07 05:01:00;;;;;;;0.57;0.57;;;18.70;60.30;;;;;;5065851;28;20025;-65
2022/10/07 05:03:27;;;;;;;0.75;0.75;;;18.70;60.30;;;;;;5065874;28;20013;-64
2022/10/07 05:05:56;;;;;;;1.15;0.90;;;18.70;60.30;;;;;;5065832;28;20028;-65
2022/10/07 05:08:23;;;;;;;0.70;0.70;;;18.70;60.40;;;;;;5065781;28;20029;-63
2022/10/07 05:10:59;;;;;;;0.70;0.70;;;18.70;60.40;;;;;;5065487;28;20045;-65
2022/10/07 05:13:25;;;;;;;0.70;0.70;;;18.70;60.30;;;;;;5065963;28;20009;-64
2022/10/07 05:15:56;;;;;;;0.70;0.70;;;18.70;60.30;;;;;;5065538;28;20317;-64
2022/10/07 05:18:23;;;;;;;0.57;0.50;;;18.70;60.30;;;;;;5065623;28;20021;-65
2022/10/07 05:20:50;;;;;;;0.57;0.57;;;18.70;60.30;;;;;;5065546;28;20027;-65
2022/10/07 05:23:17;;;;;;;0.82;0.60;;;18.70;60.30;;;;;;5065458;28;20127;-65
2022/10/07 05:25:43;;;;;;;0.83;0.77;;;18.70;60.30;;;;;;5065461;28;20021;-65
2022/10/07 05:28:10;;;;;;;0.70;0.70;;;18.70;60.30;;;;;;5065385;28;20212;-64
2022/10/07 05:30:36;;;;;;;1.23;0.60;;;18.70;60.30;;;;;;5065245;28;20055;-65
2022/10/07 05:33:02;;;;;;;0.82;0.82;;;18.70;60.30;;;;;;5065337;28;20375;-65
2022/10/07 05:35:28;;;;;;;0.60;0.60;;;18.70;60.20;;;;;;5064105;28;20021;-65
2022/10/07 05:37:54;;;;;;;0.60;0.60;;;18.70;60.20;;;;;;5065218;28;20017;-65
2022/10/07 05:40:21;;;;;;;0.50;0.50;;;18.70;60.20;;;;;;5065161;28;20116;-65
2022/10/07 05:42:46;;;;;;;0.63;0.52;;;18.70;60.30;;;;;;5065123;28;20516;-65
2022/10/07 05:45:12;;;;;;;0.88;0.85;;;18.70;60.30;;;;;;5065084;28;20024;-65
2022/10/07 05:47:38;;;;;;;0.75;0.75;;;18.70;60.20;;;;;;5065011;28;20312;-65
2022/10/07 05:50:04;;;;;;;0.77;0.77;;;18.70;60.20;;;;;;5064887;28;20017;-65
2022/10/07 05:52:30;;;;;;;0.63;0.63;;;18.70;60.20;;;;;;5064936;28;20084;-64
2022/10/07 05:54:56;;;;;;;0.60;0.60;;;18.70;60.20;;;;;;5064921;28;20028;-65
2022/10/07 05:57:22;;;;;;;0.40;0.40;;;18.70;60.20;;;;;;5064828;28;20013;-65
2022/10/07 05:59:48;;;;;;;0.80;0.80;;;18.70;60.20;;;;;;5064763;28;20059;-65
2022/10/07 06:02:16;;;;;;;0.70;0.70;;;18.70;60.20;;;;;;5063600;28;20023;-65
2022/10/07 06:04:44;;;;;;;0.60;0.60;;;18.70;60.20;;;;;;5064698;28;20216;-65
2022/10/07 06:07:10;;;;;;;0.60;0.60;;;18.60;60.10;;;;;;5064617;28;20021;-65
2022/10/07 06:15:06;;;;;;;0.60;0.60;;;18.70;60.10;;;;;;5064539;28;20027;-64
2022/10/07 06:17:31;;;;;;;0.50;0.50;;;18.70;60.10;;;;;;5064399;28;20017;-65
2022/10/07 06:19:57;;;;;;;0.70;0.70;;;18.70;60.10;;;;;;5064374;28;20084;-64
2022/10/07 06:22:23;;;;;;;0.70;0.70;;;18.70;60.10;;;;;;5064310;28;20240;-65
2022/10/07 06:24:50;;;;;;;0.68;0.65;;;18.70;60.10;;;;;;5064289;28;20013;-64
2022/10/07 06:27:16;;;;;;;0.80;0.80;;;18.70;60.00;;;;;;5064308;28;20313;-65
2022/10/07 06:29:42;;;;;;;1.38;0.60;;;18.60;60.00;;;;;;5064138;28;20027;-65
2022/10/07 06:32:09;;;;;;;0.50;0.50;;;18.70;60.00;;;;;;5064143;28;20024;-66
2022/10/07 06:34:34;;;;;;;0.55;0.55;;;18.70;60.10;;;;;;5064113;28;20024;-65
2022/10/07 06:37:00;;;;;;;0.70;0.65;;;18.70;60.10;;;;;;5064087;28;20017;-65
2022/10/07 06:39:26;;;;;;;0.68;0.60;;;18.70;60.00;;;;;;5062873;28;20013;-65
2022/10/07 06:41:53;;;;;;;12.88;2.03;;;18.70;60.00;;;;;;5060968;28;20031;-65
2022/10/07 06:44:19;;;;;;;3.97;0.85;;;18.70;60.20;;;;;;5052222;28;20321;-64
2022/10/07 06:46:45;;;;;;;4.30;1.85;;;18.70;60.20;;;;;;5056215;28;20028;-66
2022/10/07 06:49:10;;;;;;;5.93;1.20;;;18.60;61.30;;;;;;5048789;28;20017;-66
2022/10/07 06:51:36;;;;;;;3.05;1.27;;;18.60;60.80;;;;;;5054760;28;20450;-65
2022/10/07 06:54:02;;;;;;;5.40;1.45;;;18.70;60.70;;;;;;5063802;28;20371;-66
2022/10/07 06:56:28;;;;;;;1.77;1.17;;;18.70;60.50;;;;;;5061052;28;20025;-66
2022/10/07 06:58:54;;;;;;;2.33;1.10;;;18.70;60.60;;;;;;5052531;28;20035;-64
2022/10/07 07:01:19;;;;;;;7.20;1.17;;;18.80;60.70;;;;;;5043681;28;20029;-65
2022/10/07 07:03:45;;;;;;;2.17;1.10;;;18.80;60.30;;;;;;5043669;28;20023;-64
2022/10/07 07:06:11;;;;;;;14.18;1.52;;;18.90;60.30;;;;;;5050921;28;20071;-66
2022/10/07 07:08:39;;;;;;;3.38;0.93;;;18.90;60.30;;;;;;5047425;28;20056;-65
2022/10/07 07:13:54;;;;;;;6.05;1.17;;;18.90;60.50;;;;;;5063100;28;19976;-62
2022/10/07 07:16:20;;;;;;;6.00;1.30;;;18.90;60.60;;;;;;5063199;28;20044;-64
2022/10/07 07:18:54;;;;;;;5.70;0.88;;;19.00;60.50;;;;;;5062672;28;20013;-66
2022/10/07 07:21:20;;;;;;;3.38;0.90;;;19.00;60.50;;;;;;5061739;28;20017;-65
2022/10/07 07:23:46;;;;;;;1.67;0.80;;;19.00;60.40;;;;;;5056929;28;20084;-64
2022/10/07 07:26:13;;;;;;;4.15;1.10;;;19.10;60.30;;;;;;5048047;28;20028;-65
2022/10/07 07:28:39;;;;;;;5.35;1.05;;;19.10;60.40;;;;;;5044025;28;20025;-62
2022/10/07 07:31:09;;;;;;;1.20;0.63;;;19.10;60.30;;;;;;5054005;28;20025;-63
2022/10/07 07:33:38;;;;;;;4.45;1.25;;;19.10;60.20;;;;;;5063077;28;20016;-64
2022/10/07 07:36:15;;;;;;;1.63;0.90;;;19.10;60.40;;;;;;5062281;28;20190;-60
2022/10/07 07:38:51;;;;;;;6.88;1.05;;;19.20;60.40;;;;;;5055539;28;20024;-64
2022/10/07 07:41:19;;;;;;;1.35;0.80;;;19.20;60.30;;;;;;5058555;28;20032;-65
2022/10/07 07:43:49;;;;;;;;;;;19.30;60.30;;;;;;5060875;28;20028;-64
2022/10/07 07:46:16;;;;;;;5.00;1.33;;;19.20;60.30;;;;;;5062119;28;19907;-61
2022/10/07 07:48:42;;;;;;;3.13;1.25;;;19.20;60.60;;;;;;5058702;28;20031;-62
2022/10/07 07:51:08;;;;;;;1.60;1.02;;;19.20;60.40;;;;;;5061262;28;20021;-63
2022/10/07 07:53:36;;;;;;;1.40;0.80;;;19.20;60.20;;;;;;5061481;28;20021;-63
2022/10/07 07:56:02;;;;;;;1.10;0.90;;;19.20;60.60;;;;;;5059567;28;20029;-61
2022/10/07 07:58:28;;;;;;;2.15;1.42;;;19.20;60.40;;;;;;5059400;28;20033;-65
2022/10/07 08:01:07;;;;;;;3.53;1.10;;;19.20;60.50;;;;;;5056203;28;20211;-63
2022/10/07 08:03:36;;;;;;;1.95;0.90;;;19.20;61.00;;;;;;5055400;28;20276;-66
2022/10/07 08:06:03;;;;;;;3.03;1.67;;;19.20;60.70;;;;;;5062659;28;20028;-65
2022/10/07 08:08:30;;;;;;;4.40;1.20;;;19.10;60.50;;;;;;5061890;28;20021;-61
2022/10/07 08:10:56;;;;;;;2.47;1.20;;;19.10;60.60;;;;;;5055698;28;20045;-65
2022/10/07 08:13:23;;;;;;;3.45;1.00;;;19.20;60.70;;;;;;5052965;28;20013;-67
2022/10/07 08:15:54;;;;;;;2.05;0.98;;;19.20;60.60;;;;;;5061905;28;20041;-65
2022/10/07 08:18:20;;;;;;;0.95;0.82;;;19.30;60.60;;;;;;5062683;28;20024;-64
2022/10/07 08:20:56;;;;;;;5.40;1.42;;;19.30;60.50;;;;;;5062382;28;20372;-67
2022/10/07 08:23:22;;;;;;;3.67;1.00;;;19.30;60.50;;;;;;5061113;28;20024;-66
2022/10/07 08:25:53;;;;;;;3.30;1.02;;;19.30;61.30;;;;;;5049591;28;20024;-68
2022/10/07 08:28:18;;;;;;;2.38;0.88;;;19.30;60.80;;;;;;5062574;28;20028;-66
2022/10/07 08:30:45;;;;;;;6.22;1.30;;;19.30;60.70;;;;;;5063061;28;20084;-66
2022/10/07 08:33:11;;;;;;;1.92;1.08;;;19.30;60.70;;;;;;5064272;28;20248;-67
2022/10/07 08:35:36;;;;;;;11.02;1.90;;;19.30;60.60;;;;;;5066217;28;20522;-66
2022/10/07 08:38:02;;;;;;;5.00;1.38;;;19.30;60.50;;;;;;5066122;28;20024;-68
2022/10/07 08:40:28;;;;;;;2.35;1.27;;;19.30;60.50;;;;;;5055629;28;20049;-68
2022/10/07 08:42:54;;;;;;;13.50;1.38;;;19.30;60.50;;;;;;5061983;28;20053;-65
2022/10/07 08:45:31;;;;;;;2.45;0.95;;;19.30;60.40;;;;;;5057195;28;20316;-68
2022/10/07 08:48:06;;;;;;;3.08;1.17;;;19.30;60.50;;;;;;5052293;28;20074;-66
2022/10/07 08:51:13;;;;;;;5.47;1.52;;;19.30;60.50;;;;;;5051189;28;20027;-67
2022/10/07 08:53:43;;;;;;;5.83;1.20;;;19.30;60.60;;;;;;5041983;28;20021;-66
2022/10/07 08:56:08;;;;;;;5.55;1.00;;;19.30;60.60;;;;;;5039804;28;20457;-65
2022/10/07 08:58:39;;;;;;;9.82;1.50;;;19.30;60.50;;;;;;5044905;28;20042;-66
2022/10/07 09:01:30;;;;;;;8.93;1.40;;;19.30;60.50;;;;;;5053729;28;20032;-65
2022/10/07 09:04:25;;;;;;;5.32;1.30;;;19.40;60.40;;;;;;5052880;28;20021;-67
2022/10/07 09:07:21;;;;;;;7.47;1.38;;;19.30;60.50;;;;;;5050783;28;20029;-66
2022/10/07 09:09:58;;;;;;;4.57;1.48;;;19.30;60.60;;;;;;5047988;28;20061;-67
2022/10/07 09:12:52;;;;;;;4.43;1.10;;;19.30;60.70;;;;;;5062551;28;20084;-66
2022/10/07 09:15:57;;;;;;;7.63;1.17;;;19.30;60.60;;;;;;5063164;28;20078;-66
2022/10/07 09:18:40;;;;;;;21.05;2.22;;;19.30;60.50;;;;;;5043362;28;20017;-66
2022/10/07 09:21:17;;;;;;;13.55;2.47;;;19.30;60.80;;;;;;5043315;28;20302;-66
2022/10/07 09:23:45;;;;;;;23.10;2.90;;;19.40;61.00;;;;;;5053124;28;20033;-66
2022/10/07 09:26:13;;;;;;;10.97;1.73;;;19.30;61.30;;;;;;5063935;28;20033;-64
2022/10/07 09:28:39;;;;;;;22.15;2.85;;;19.40;61.10;;;;;;5063698;28;20313;-65
2022/10/07 09:31:05;;;;;;;22.30;2.92;;;19.40;61.30;;;;;;5060987;28;20128;-65
2022/10/07 09:33:40;;;;;;;16.33;3.25;;;19.40;61.20;;;;;;5060460;28;20076;-67
2022/10/07 09:36:11;;;;;;;24.50;2.72;;;19.40;61.10;;;;;;5064339;28;20053;-64
2022/10/07 09:38:42;;;;;;;15.02;2.35;;;19.40;60.90;;;;;;5064957;28;20017;-64
2022/10/07 09:41:14;;;;;;;12.27;2.15;;;19.40;60.90;;;;;;5063176;28;20332;-66
2022/10/07 09:44:02;;;;;;;11.10;2.20;;;19.40;60.90;;;;;;5064481;28;20033;-66
2022/10/07 09:46:32;;;;;;;;;;;19.40;60.80;;;;;;5061955;28;20033;-66
2022/10/07 09:49:00;;;;;;;13.90;2.30;;;19.40;60.80;;;;;;5053779;28;19905;-66
2022/10/07 09:51:29;;;;;;;17.02;2.13;;;19.40;60.90;;;;;;5049893;28;20041;-66
2022/10/07 09:54:01;;;;;;;;;;;19.50;60.90;;;;;;5064873;28;20021;-65
2022/10/07 09:56:46;;;;;;;25.05;2.78;;;19.50;60.90;;;;;;5055068;28;20108;-67
2022/10/07 09:59:22;;;;;;;10.88;1.80;;;19.50;61.00;;;;;;5057949;28;20048;-67
2022/10/07 10:02:08;;;;;;;10.20;1.90;;;19.50;60.90;;;;;;5060085;28;20029;-67
2022/10/07 10:04:38;;;;;;;5.68;1.50;;;19.50;60.80;;;;;;5054182;28;20345;-66
2022/10/07 10:07:15;;;;;;;9.18;1.90;;;19.50;60.80;;;;;;5063658;28;20027;-67
2022/10/07 10:09:48;;;;;;;13.38;2.92;;;19.50;60.90;;;;;;5060170;28;20270;-67
2022/10/07 10:12:15;;;;;;;10.02;2.05;;;19.50;61.40;;;;;;5058085;28;20062;-68
2022/10/07 10:14:50;;;;;;;11.02;1.65;;;19.50;60.80;;;;;;5057655;28;20025;-68
2022/10/07 10:17:33;;;;;;;6.38;2.05;;;19.60;60.80;;;;;;5059020;28;20017;-68
2022/10/07 10:20:25;;;;;;;3.65;1.67;;;19.50;60.80;;;;;;5057766;28;20040;-63
2022/10/07 10:22:52;;;;;;;10.90;3.30;;;19.60;60.80;;;;;;5046378;28;20024;-67
2022/10/07 10:28:52;;;;;;;11.77;2.83;;;19.60;60.80;;;;;;5063294;28;20024;-65
2022/10/07 10:31:29;;;;;;;10.98;2.35;;;19.60;60.90;;;;;;5060483;28;20092;-67
2022/10/07 10:34:02;;;;;;;6.80;1.88;;;19.60;60.80;;;;;;5063166;28;20021;-66
2022/10/07 10:36:32;;;;;;;7.72;2.25;;;19.60;60.90;;;;;;5063761;28;20020;-65
2022/10/07 10:39:03;;;;;;;8.38;1.80;;;19.60;60.90;;;;;;5063086;28;20063;-66
2022/10/07 10:41:47;;;;;;;11.35;1.85;;;19.60;60.90;;;;;;5047749;28;20079;-65
2022/10/07 10:45:02;;;;;;;5.97;1.77;;;19.60;60.80;;;;;;5056596;28;20021;-65
2022/10/07 10:47:41;;;;;;;9.50;1.77;;;19.60;60.90;;;;;;5051787;28;20057;-64
2022/10/07 10:50:56;;;;;;;7.80;1.65;;;19.60;61.10;;;;;;5055729;28;20400;-66
2022/10/07 10:53:41;;;;;;;10.07;1.70;;;19.60;61.00;;;;;;5016336;28;20037;-67
2022/10/07 10:56:21;;;;;;;8.48;2.08;;;19.60;61.00;;;;;;5047107;28;20020;-65
2022/10/07 10:58:48;;;;;;;12.45;1.92;;;19.70;61.10;;;;;;5059649;28;20036;-66
2022/10/07 11:01:35;;;;;;;10.13;1.70;;;19.60;61.00;;;;;;5050942;28;20020;-66
2022/10/07 11:04:23;;;;;;;1.65;1.52;;;19.60;61.00;;;;;;5053595;28;20092;-63
2022/10/07 11:07:01;;;;;;;3.83;1.55;;;19.60;60.90;;;;;;5061706;28;20025;-65
2022/10/07 11:09:38;;;;;;;4.40;1.20;;;19.60;61.00;;;;;;5062076;28;20070;-65
2022/10/07 11:12:10;;;;;;;8.77;1.63;;;19.70;61.00;;;;;;5062172;28;20036;-65
2022/10/07 11:14:47;;;;;;;6.13;1.60;;;19.60;61.00;;;;;;5063213;28;20075;-65
2022/10/07 11:17:14;;;;;;;3.90;1.45;;;19.70;61.00;;;;;;5063277;28;20066;-64
2022/10/07 11:19:50;;;;;;;6.72;1.27;;;19.70;61.00;;;;;;5060293;28;20020;-66
2022/10/07 11:22:28;;;;;;;8.93;2.00;;;19.70;60.90;;;;;;5061149;28;20067;-65
2022/10/07 11:25:01;;;;;;;5.30;1.67;;;19.70;60.90;;;;;;5055701;28;20017;-66
2022/10/07 11:27:31;;;;;;;3.95;1.40;;;19.70;60.90;;;;;;5057583;28;20048;-67
2022/10/07 11:30:04;;;;;;;8.35;1.45;;;19.80;60.90;;;;;;5061997;28;20020;-67
2022/10/07 11:32:48;;;;;;;4.28;1.40;;;19.70;60.80;;;;;;5063143;28;20029;-65
2022/10/07 11:35:26;;;;;;;7.57;1.60;;;19.70;60.70;;;;;;5057494;28;20021;-66
2022/10/07 11:38:11;;;;;;;7.00;1.67;;;19.80;60.80;;;;;;5061269;28;20363;-66
2022/10/07 11:40:53;;;;;;;12.45;2.00;;;19.80;60.90;;;;;;5055737;28;20032;-65
2022/10/07 11:43:34;;;;;;;7.88;1.95;;;19.70;61.00;;;;;;5054562;28;20017;-68
2022/10/07 11:46:05;;;;;;;5.45;1.58;;;19.80;61.00;;;;;;5061147;28;20122;-69
2022/10/07 11:48:43;;;;;;;5.97;1.30;;;19.80;61.00;;;;;;5061653;28;20021;-67
2022/10/07 11:51:20;;;;;;;3.30;1.00;;;19.80;60.90;;;;;;5062931;28;20080;-69
2022/10/07 11:53:46;;;;;;;7.57;1.83;;;19.80;60.90;;;;;;5062981;28;20190;-69
2022/10/07 11:56:19;;;;;;;7.55;1.75;;;19.80;60.80;;;;;;5062532;28;20017;-68
2022/10/07 11:58:47;;;;;;;4.88;1.60;;;19.80;60.80;;;;;;5062891;28;20021;-69
2022/10/07 12:01:27;;;;;;;6.80;1.42;;;19.80;60.70;;;;;;5062010;28;20017;-68
2022/10/07 12:04:34;;;;;;;4.60;1.55;;;19.80;60.70;;;;;;5063330;28;20024;-66
2022/10/07 12:07:33;;;;;;;5.97;1.52;;;19.80;60.70;;;;;;5066869;28;20059;-68
2022/10/07 12:10:02;;;;;;;4.70;1.40;;;19.80;60.70;;;;;;5066597;28;20045;-67
2022/10/07 12:12:50;;;;;;;2.40;1.27;;;19.80;60.80;;;;;;5066810;28;20355;-68
2022/10/07 12:15:32;;;;;;;6.03;1.40;;;19.80;61.30;;;;;;5066875;28;20055;-70
2022/10/07 12:18:04;;;;;;;8.02;1.98;;;19.90;60.60;;;;;;5066750;28;20020;-67
2022/10/07 12:20:43;;;;;;;7.70;1.80;;;19.90;60.60;;;;;;5066745;28;20083;-70
2022/10/07 12:23:19;;;;;;;10.23;1.42;;;19.90;60.70;;;;;;5067056;28;20020;-69
2022/10/07 12:25:46;;;;;;;6.18;1.40;;;19.90;60.60;;;;;;5066865;28;20017;-69
2022/10/07 12:28:17;;;;;;;4.18;1.45;;;19.90;60.50;;;;;;5067150;28;20023;-68
2022/10/07 12:30:53;;;;;;;3.72;1.27;;;19.90;60.50;;;;;;5067057;28;20016;-69
2022/10/07 12:33:44;;;;;;;5.63;1.58;;;20.00;60.50;;;;;;5066636;28;20071;-68
2022/10/07 12:36:25;;;;;;;3.80;1.40;;;20.00;60.50;;;;;;5066554;28;20036;-68
2022/10/07 12:38:59;;;;;;;7.32;1.15;;;20.00;60.50;;;;;;5066587;28;20418;-69
2022/10/07 12:41:42;;;;;;;5.03;1.20;;;20.00;60.50;;;;;;5066427;28;20024;-67
2022/10/07 12:44:31;;;;;;;4.97;1.75;;;20.00;60.50;;;;;;5066501;28;20024;-69
2022/10/07 12:47:00;;;;;;;4.70;1.77;;;20.10;60.30;;;;;;5066353;28;20324;-67
2022/10/07 12:49:31;;;;;;;;;;;20.10;60.20;;;;;;5066676;28;20029;-67
2022/10/07 12:52:03;;;;;;;6.50;1.10;;;20.10;60.10;;;;;;5066090;28;19979;-68
2022/10/07 12:54:53;;;;;;;3.92;1.27;;;20.20;60.00;;;;;;5066109;28;20071;-69
2022/10/07 12:57:22;;;;;;;5.57;1.35;;;20.30;59.70;;;;;;5065734;28;20119;-68
2022/10/07 13:00:21;;;;;;;10.13;1.40;;;20.40;59.50;;;;;;5066156;28;20301;-67
2022/10/07 13:03:24;;;;;;;3.17;1.20;;;20.50;59.20;;;;;;5065929;28;20045;-68
2022/10/07 13:05:52;;;;;;;7.00;1.52;;;20.60;59.00;;;;;;5065952;28;20025;-68
2022/10/07 13:08:27;;;;;;;;;;;20.70;58.80;;;;;;5066263;28;20021;-68
2022/10/07 13:11:20;;;;;;;2.88;1.20;;;20.80;58.60;;;;;;5065569;28;19912;-68
2022/10/07 13:14:14;;;;;;;4.45;1.10;;;20.80;58.40;;;;;;5065840;28;20021;-68
2022/10/07 13:17:12;;;;;;;4.45;1.23;;;20.90;58.10;;;;;;5065153;28;20013;-68
2022/10/07 13:19:56;;;;;;;3.05;1.20;;;20.90;58.10;;;;;;5061095;28;20091;-68
2022/10/07 13:22:25;;;;;;;2.22;1.20;;;21.00;57.90;;;;;;5065627;28;20021;-68
2022/10/07 13:24:54;;;;;;;2.10;1.38;;;21.10;57.90;;;;;;5065606;28;20025;-68
2022/10/07 13:27:25;;;;;;;2.25;1.13;;;21.10;57.60;;;;;;5065466;28;20023;-68